createdAt,value
2019-02-23T00:01:26.951Z,62.77
2019-02-23T00:03:55.747Z,59.63
2019-02-23T00:06:29.842Z,70.73
2019-02-23T00:08:54.947Z,65.13
2019-02-23T00:11:25.380Z,67.07
2019-02-23T00:13:56.171Z,66.87
2019-02-23T00:16:25.389Z,64.27
2019-02-23T00:18:53.762Z,66.60
2019-02-23T00:21:22.904Z,66.10
2019-02-23T00:26:38.775Z,71.17
2019-02-23T00:29:07.496Z,61.30
2019-02-23T00:31:36.021Z,67.67
2019-02-23T00:34:04.725Z,71.27
2019-02-23T00:36:34.014Z,85.63
2019-02-23T00:39:02.795Z,75.40
2019-02-23T00:41:31.240Z,75.03
2019-02-23T00:43:59.671Z,72.47
2019-02-23T00:46:28.654Z,76.13
2019-02-23T00:48:57.359Z,74.13
2019-02-23T00:51:25.897Z,73.40
2019-02-23T00:53:54.406Z,77.50
2019-02-23T00:56:22.874Z,75.87
2019-02-23T00:58:51.574Z,83.03
2019-02-23T01:01:20.256Z,82.87
2019-02-23T01:03:49.260Z,78.07
2019-02-23T01:06:18.125Z,81.30
2019-02-23T01:08:46.681Z,80.87
2019-02-23T01:11:15.094Z,78.87
2019-02-23T01:13:43.705Z,78.93
2019-02-23T01:16:12.330Z,90.23
2019-02-23T01:18:41.116Z,84.03
2019-02-23T01:21:09.813Z,78.50
2019-02-23T01:23:38.522Z,87.13
2019-02-23T01:26:07.144Z,87.73
2019-02-23T01:28:35.750Z,84.83
2019-02-23T01:31:04.397Z,79.03
2019-02-23T01:33:33.043Z,90.47
2019-02-23T01:36:02.003Z,80.73
2019-02-23T01:38:30.561Z,85.83
2019-02-23T01:40:59.078Z,75.60
2019-02-23T01:43:27.760Z,86.30
2019-02-23T01:45:56.378Z,83.90
2019-02-23T01:48:24.956Z,80.07
2019-02-23T01:50:53.592Z,82.30
2019-02-23T01:53:22.102Z,85.07
2019-02-23T01:55:57.573Z,85.73
2019-02-23T01:58:26.100Z,83.83
2019-02-23T02:00:54.736Z,89.27
2019-02-23T02:03:23.639Z,87.17
2019-02-23T02:05:52.288Z,91.23
2019-02-23T02:08:20.871Z,84.27
2019-02-23T02:10:49.388Z,89.13
2019-02-23T02:13:17.915Z,83.27
2019-02-23T02:15:46.545Z,85.63
2019-02-23T02:18:15.101Z,91.20
2019-02-23T02:20:43.570Z,92.20
2019-02-23T02:23:12.023Z,92.40
2019-02-23T02:25:40.485Z,90.43
2019-02-23T02:28:09.086Z,86.27
2019-02-23T02:30:37.508Z,93.40
2019-02-23T02:33:05.990Z,97.43
2019-02-23T02:35:34.641Z,87.70
2019-02-23T02:38:03.331Z,89.23
2019-02-23T02:40:31.990Z,91.20
2019-02-23T02:43:00.689Z,86.63
2019-02-23T02:45:29.319Z,89.43
2019-02-23T02:47:57.867Z,96.03
2019-02-23T02:50:26.419Z,91.57
2019-02-23T02:52:55.120Z,85.47
2019-02-23T02:55:23.610Z,90.53
2019-02-23T02:57:52.277Z,90.80
2019-02-23T03:00:20.742Z,87.70
2019-02-23T03:02:50.148Z,96.37
2019-02-23T03:05:19.006Z,88.10
2019-02-23T03:07:47.820Z,91.73
2019-02-23T03:10:16.508Z,87.40
2019-02-23T03:12:45.129Z,90.23
2019-02-23T03:15:13.717Z,84.50
2019-02-23T03:17:42.300Z,100.27
2019-02-23T03:20:10.880Z,94.27
2019-02-23T03:22:39.468Z,85.37
2019-02-23T03:25:08.243Z,89.87
2019-02-23T03:27:36.963Z,92.97
2019-02-23T03:30:06.057Z,93.10
2019-02-23T03:32:34.789Z,88.27
2019-02-23T03:35:03.422Z,86.40
2019-02-23T03:37:31.940Z,88.17
2019-02-23T03:40:00.578Z,92.23
2019-02-23T03:42:29.426Z,96.23
2019-02-23T03:44:57.977Z,94.93
2019-02-23T03:47:26.639Z,101.17
2019-02-23T03:49:55.607Z,98.13
2019-02-23T03:52:24.066Z,94.60
2019-02-23T03:54:53.642Z,89.40
2019-02-23T03:57:22.326Z,99.83
2019-02-23T03:59:51.112Z,95.07
2019-02-23T04:02:19.603Z,98.97
2019-02-23T04:04:48.178Z,91.00
2019-02-23T04:07:16.732Z,88.17
2019-02-23T04:09:45.293Z,95.83
2019-02-23T04:12:13.819Z,92.33
2019-02-23T04:14:42.332Z,96.93
2019-02-23T04:17:10.853Z,95.47
2019-02-23T04:19:39.350Z,86.30
2019-02-23T04:22:07.807Z,106.40
2019-02-23T04:24:36.441Z,97.23
2019-02-23T04:27:05.064Z,90.80
2019-02-23T04:29:33.455Z,90.20
2019-02-23T04:32:02.090Z,94.77
2019-02-23T04:34:30.708Z,97.93
2019-02-23T04:36:59.286Z,94.60
2019-02-23T04:39:27.808Z,92.73
2019-02-23T04:41:56.326Z,93.03
2019-02-23T04:44:24.800Z,92.80
2019-02-23T04:46:53.293Z,93.33
2019-02-23T04:49:21.748Z,93.80
2019-02-23T04:51:50.157Z,103.33
2019-02-23T04:54:18.669Z,90.53
2019-02-23T04:56:47.199Z,91.87
2019-02-23T04:59:15.905Z,101.20
2019-02-23T05:01:44.446Z,96.90
2019-02-23T05:04:12.898Z,92.00
2019-02-23T05:06:42.164Z,97.83
2019-02-23T05:09:10.915Z,100.17
2019-02-23T05:11:39.430Z,91.03
2019-02-23T05:14:07.981Z,88.30
2019-02-23T05:16:36.491Z,92.40
2019-02-23T05:19:05.072Z,93.77
2019-02-23T05:21:34.369Z,90.00
2019-02-23T05:24:02.823Z,100.33
2019-02-23T05:26:31.372Z,89.70
2019-02-23T05:28:59.813Z,94.03
2019-02-23T05:31:29.226Z,97.37
2019-02-23T05:33:57.742Z,96.60
2019-02-23T05:36:26.327Z,96.17
2019-02-23T05:38:54.788Z,92.53
2019-02-23T05:41:23.253Z,107.17
2019-02-23T05:43:51.687Z,108.10
2019-02-23T05:46:20.080Z,93.30
2019-02-23T05:48:48.478Z,87.70
2019-02-23T05:51:17.270Z,102.03
2019-02-23T05:53:45.878Z,98.10
2019-02-23T05:56:16.312Z,92.23
2019-02-23T05:58:44.729Z,97.33
2019-02-23T06:01:13.284Z,99.20
2019-02-23T06:03:41.809Z,98.43
2019-02-23T06:06:10.213Z,102.07
2019-02-23T06:08:38.837Z,104.43
2019-02-23T06:11:10.343Z,93.23
2019-02-23T06:13:38.877Z,96.83
2019-02-23T06:16:08.997Z,96.57
2019-02-23T06:18:37.497Z,100.50
2019-02-23T06:21:06.018Z,103.00
2019-02-23T06:23:36.183Z,103.00
2019-02-23T06:26:04.686Z,95.80
2019-02-23T06:28:33.320Z,93.67
2019-02-23T06:31:01.886Z,103.30
2019-02-23T06:33:30.585Z,102.80
2019-02-23T06:35:59.102Z,95.30
2019-02-23T06:38:27.587Z,103.87
2019-02-23T06:40:59.548Z,103.93
2019-02-23T06:43:28.160Z,94.93
2019-02-23T06:45:56.778Z,104.33
2019-02-23T06:48:25.389Z,101.60
2019-02-23T06:50:54.051Z,101.00
2019-02-23T06:53:22.657Z,100.40
2019-02-23T06:55:51.112Z,105.53
2019-02-23T06:58:19.730Z,94.60
2019-02-23T07:00:55.728Z,91.60
2019-02-23T07:03:49.854Z,98.93
2019-02-23T07:06:18.517Z,96.00
2019-02-23T07:08:47.751Z,93.80
2019-02-23T07:11:17.536Z,90.00
2019-02-23T07:13:47.915Z,98.43
2019-02-23T07:16:16.394Z,95.53
2019-02-23T07:18:44.800Z,88.30
2019-02-23T07:21:13.234Z,91.27
2019-02-23T07:23:41.656Z,91.47
2019-02-23T07:26:10.191Z,95.40
2019-02-23T07:28:39.866Z,97.83
2019-02-23T07:31:11.938Z,85.60
2019-02-23T07:33:40.452Z,96.53
2019-02-23T07:36:10.415Z,91.73
2019-02-23T07:38:38.875Z,91.90
2019-02-23T07:41:07.515Z,84.20
2019-02-23T07:43:36.019Z,86.13
2019-02-23T07:46:04.588Z,84.73
2019-02-23T07:48:33.253Z,85.47
2019-02-23T07:51:01.953Z,75.30
2019-02-23T07:53:30.392Z,85.30
2019-02-23T07:55:58.950Z,81.90
2019-02-23T07:58:27.479Z,70.43
2019-02-23T08:00:56.025Z,75.20
2019-02-23T08:03:24.509Z,77.13
2019-02-23T08:05:53.026Z,68.43
2019-02-23T08:08:21.409Z,65.73
2019-02-23T08:10:49.883Z,66.23
2019-02-23T08:13:18.651Z,64.37
2019-02-23T08:15:48.143Z,67.40
2019-02-23T08:18:16.645Z,62.63
2019-02-23T08:20:45.128Z,61.07
2019-02-23T08:23:14.371Z,60.40
2019-02-23T08:25:43.129Z,58.50
2019-02-23T08:28:11.574Z,63.40
2019-02-23T08:30:40.277Z,56.17
2019-02-23T08:33:08.962Z,66.93
2019-02-23T08:35:37.414Z,62.43
2019-02-23T08:38:06.259Z,60.90
2019-02-23T08:40:35.092Z,55.93
2019-02-23T08:43:03.606Z,58.33
2019-02-23T08:45:32.075Z,54.70
2019-02-23T08:48:05.044Z,56.27
2019-02-23T08:50:33.631Z,53.47
2019-02-23T08:53:02.480Z,49.03
2019-02-23T08:55:31.064Z,53.70
2019-02-23T08:57:59.816Z,56.13
2019-02-23T09:00:28.593Z,60.73
2019-02-23T09:02:57.158Z,75.77
2019-02-23T09:05:26.682Z,56.03
2019-02-23T09:07:55.554Z,49.73
2019-02-23T09:10:24.267Z,49.63
2019-02-23T09:12:52.802Z,47.97
2019-02-23T09:15:22.471Z,48.37
2019-02-23T09:17:51.075Z,46.33
2019-02-23T09:20:28.571Z,51.43
2019-02-23T09:22:59.685Z,49.73
2019-02-23T09:25:23.215Z,52.97
2019-02-23T09:27:52.025Z,50.80
2019-02-23T09:30:20.867Z,47.07
2019-02-23T09:32:49.413Z,44.80
2019-02-23T09:35:18.162Z,43.97
2019-02-23T09:37:47.218Z,46.70
2019-02-23T09:40:15.860Z,43.47
2019-02-23T09:42:44.451Z,46.43
2019-02-23T09:45:13.029Z,39.43
2019-02-23T09:47:41.864Z,41.57
2019-02-23T09:50:10.352Z,46.80
2019-02-23T09:52:39.176Z,46.90
2019-02-23T09:55:08.288Z,48.80
2019-02-23T09:57:36.882Z,41.90
2019-02-23T10:00:07.948Z,40.13
2019-02-23T10:02:36.999Z,39.07
2019-02-23T10:05:06.779Z,37.17
2019-02-23T10:07:35.947Z,40.17
2019-02-23T10:10:04.844Z,44.47
2019-02-23T10:12:33.406Z,39.13
2019-02-23T10:15:02.437Z,37.70
2019-02-23T10:17:31.027Z,38.83
2019-02-23T10:19:59.631Z,41.13
2019-02-23T10:22:28.519Z,39.77
2019-02-23T10:24:57.082Z,36.87
2019-02-23T10:27:25.700Z,38.77
2019-02-23T10:29:54.268Z,38.97
2019-02-23T10:32:24.185Z,39.97
2019-02-23T10:34:52.785Z,39.30
2019-02-23T10:37:21.377Z,36.30
2019-02-23T10:39:50.321Z,34.00
2019-02-23T10:42:19.082Z,38.57
2019-02-23T10:44:47.823Z,32.43
2019-02-23T10:47:16.697Z,35.50
2019-02-23T10:49:47.444Z,36.10
2019-02-23T10:52:16.187Z,32.27
2019-02-23T10:54:47.145Z,33.63
2019-02-23T10:57:15.164Z,36.57
2019-02-23T10:59:43.827Z,36.13
2019-02-23T11:02:12.686Z,31.90
2019-02-23T11:04:41.342Z,33.37
2019-02-23T11:07:10.226Z,35.27
2019-02-23T11:09:42.628Z,34.57
2019-02-23T11:12:12.041Z,31.83
2019-02-23T11:14:48.178Z,32.73
2019-02-23T11:17:16.835Z,33.60
2019-02-23T11:19:46.241Z,33.30
2019-02-23T11:22:15.381Z,32.27
2019-02-23T11:24:43.851Z,32.20
2019-02-23T11:27:14.298Z,28.47
2019-02-23T11:29:43.991Z,31.57
2019-02-23T11:32:14.556Z,30.60
2019-02-23T11:34:46.581Z,32.90
2019-02-23T11:37:15.588Z,29.43
2019-02-23T11:39:44.700Z,27.37
2019-02-23T11:42:16.938Z,31.90
2019-02-23T11:44:45.435Z,31.00
2019-02-23T11:47:15.623Z,33.33
2019-02-23T11:49:44.773Z,28.83
2019-02-23T11:52:14.581Z,31.37
2019-02-23T11:54:44.166Z,29.07
2019-02-23T11:57:13.742Z,28.63
2019-02-23T11:59:42.221Z,29.33
2019-02-23T12:02:10.871Z,29.47
2019-02-23T12:04:43.036Z,29.03
2019-02-23T12:07:13.025Z,29.43
2019-02-23T12:09:41.815Z,29.03
2019-02-23T12:12:11.016Z,29.17
2019-02-23T12:14:39.585Z,30.43
2019-02-23T12:17:08.516Z,29.00
2019-02-23T12:19:37.343Z,29.37
2019-02-23T12:22:14.880Z,29.17
2019-02-23T12:24:43.658Z,31.93
2019-02-23T12:27:37.980Z,28.13
2019-02-23T12:32:53.312Z,27.10
2019-02-23T12:35:25.789Z,26.63
2019-02-23T12:37:58.592Z,26.63
2019-02-23T12:40:30.367Z,25.07
2019-02-23T12:43:12.282Z,26.47
2019-02-23T12:45:55.140Z,22.77
2019-02-23T12:48:33.535Z,24.50
2019-02-23T12:51:04.156Z,22.60
2019-02-23T12:53:33.188Z,28.10
2019-02-23T12:56:05.278Z,23.70
2019-02-23T12:58:54.930Z,21.47
2019-02-23T13:01:27.127Z,24.47
2019-02-23T13:04:10.602Z,23.00
2019-02-23T13:06:52.931Z,27.53
2019-02-23T13:09:34.117Z,23.63
2019-02-23T13:12:29.503Z,21.53
2019-02-23T13:15:44.040Z,20.97
2019-02-23T13:18:35.482Z,20.83
2019-02-23T13:21:38.011Z,21.73
2019-02-23T13:24:41.057Z,21.50
2019-02-23T13:27:20.120Z,30.27
2019-02-23T13:29:59.875Z,52.50
2019-02-23T13:33:03.541Z,31.50
2019-02-23T13:35:51.913Z,24.73
2019-02-23T13:38:28.672Z,18.90
2019-02-23T13:41:08.123Z,20.37
2019-02-23T13:44:04.744Z,17.23
2019-02-23T13:47:01.383Z,16.93
2019-02-23T13:49:41.460Z,15.90
2019-02-23T13:52:28.464Z,18.87
2019-02-23T13:55:05.208Z,16.67
2019-02-23T13:57:53.117Z,17.23
2019-02-23T14:00:26.631Z,18.07
2019-02-23T14:03:11.473Z,17.10
2019-02-23T14:05:45.967Z,17.40
2019-02-23T14:08:40.001Z,16.70
2019-02-23T14:11:30.617Z,14.93
2019-02-23T14:14:11.846Z,17.13
2019-02-23T14:16:43.818Z,17.17
2019-02-23T14:19:15.392Z,16.77
2019-02-23T14:22:01.696Z,15.53
2019-02-23T14:28:15.971Z,15.40
2019-02-23T14:31:08.988Z,15.43
2019-02-23T14:33:56.373Z,16.83
2019-02-23T14:36:37.332Z,18.23
2019-02-23T14:39:28.835Z,16.23
2019-02-23T14:42:00.557Z,17.73
2019-02-23T14:44:51.422Z,16.80
2019-02-23T14:47:26.863Z,17.33
2019-02-23T14:50:04.836Z,17.70
2019-02-23T14:52:46.185Z,16.97
2019-02-23T14:55:17.486Z,20.03
2019-02-23T14:57:50.889Z,19.40
2019-02-23T15:00:24.453Z,20.70
2019-02-23T15:03:30.450Z,23.30
2019-02-23T15:06:02.214Z,20.47
2019-02-23T15:08:53.011Z,22.40
2019-02-23T15:11:46.735Z,22.03
2019-02-23T15:14:40.796Z,21.53
2019-02-23T15:17:43.856Z,22.63
2019-02-23T15:20:25.194Z,20.63
2019-02-23T15:23:28.396Z,21.47
2019-02-23T15:26:09.817Z,25.20
2019-02-23T15:28:57.218Z,22.17
2019-02-23T15:31:54.096Z,21.63
2019-02-23T15:34:27.217Z,26.60
2019-02-23T15:37:13.438Z,24.90
2019-02-23T15:40:04.214Z,20.80
2019-02-23T15:42:52.096Z,24.70
2019-02-23T15:45:25.674Z,24.77
2019-02-23T15:48:04.915Z,23.13
2019-02-23T15:50:34.157Z,24.17
2019-02-23T15:53:02.896Z,24.33
2019-02-23T15:55:31.776Z,21.83
2019-02-23T15:58:00.399Z,24.63
2019-02-23T16:00:28.891Z,25.67
2019-02-23T16:02:57.557Z,25.73
2019-02-23T16:05:26.277Z,24.80
2019-02-23T16:07:55.174Z,27.67
2019-02-23T16:10:24.939Z,26.27
2019-02-23T16:12:55.934Z,27.43
2019-02-23T16:15:30.587Z,28.17
2019-02-23T16:17:59.765Z,27.73
2019-02-23T16:20:28.483Z,28.87
2019-02-23T16:22:57.584Z,31.10
2019-02-23T16:25:37.778Z,28.37
2019-02-23T16:27:56.771Z,28.63
2019-02-23T16:30:25.640Z,26.60
2019-02-23T16:32:54.287Z,31.60
2019-02-23T16:35:22.921Z,30.50
2019-02-23T16:37:51.641Z,28.80
2019-02-23T16:40:20.155Z,30.53
2019-02-23T16:42:48.801Z,30.87
2019-02-23T16:45:17.659Z,29.67
2019-02-23T16:47:46.240Z,31.87
2019-02-23T16:54:22.211Z,28.83
2019-02-23T16:56:23.399Z,31.00
2019-02-23T16:58:51.910Z,32.17
2019-02-23T17:01:20.461Z,28.10
2019-02-23T17:03:48.987Z,28.47
2019-02-23T17:06:17.698Z,24.70
2019-02-23T17:08:46.665Z,27.43
2019-02-23T17:11:15.280Z,26.87
2019-02-23T17:13:43.965Z,26.17
2019-02-23T17:16:12.856Z,27.20
2019-02-23T17:18:41.569Z,25.30
2019-02-23T17:21:10.632Z,26.30
2019-02-23T17:23:41.514Z,28.43
2019-02-23T17:26:13.183Z,39.73
2019-02-23T17:28:41.780Z,56.37
2019-02-23T17:31:10.980Z,54.03
2019-02-23T17:33:39.679Z,30.27
2019-02-23T17:36:08.143Z,28.50
2019-02-23T17:38:36.940Z,27.63
2019-02-23T17:41:05.571Z,27.70
2019-02-23T17:43:34.219Z,28.43
2019-02-23T17:46:03.148Z,26.03
2019-02-23T17:48:33.930Z,28.23
2019-02-23T17:51:02.979Z,29.40
2019-02-23T17:53:31.856Z,25.00
2019-02-23T17:56:00.468Z,29.43
2019-02-23T17:58:29.184Z,28.53
2019-02-23T18:00:57.919Z,28.60
2019-02-23T18:03:26.714Z,26.03
2019-02-23T18:05:55.221Z,29.53
2019-02-23T18:08:23.803Z,32.77
2019-02-23T18:10:52.369Z,31.60
2019-02-23T18:13:21.051Z,27.33
2019-02-23T18:15:49.707Z,33.00
2019-02-23T18:18:18.337Z,27.63
2019-02-23T18:20:48.272Z,28.60
2019-02-23T18:23:16.970Z,29.60
2019-02-23T18:25:45.633Z,27.90
2019-02-23T18:28:14.300Z,28.87
2019-02-23T18:30:42.915Z,27.80
2019-02-23T18:33:11.578Z,30.90
2019-02-23T18:35:40.308Z,29.20
2019-02-23T18:38:08.908Z,28.90
2019-02-23T18:40:37.558Z,30.43
2019-02-23T18:43:06.771Z,28.27
2019-02-23T18:45:35.430Z,29.53
2019-02-23T18:48:04.115Z,34.97
2019-02-23T18:50:32.686Z,30.30
2019-02-23T18:53:01.297Z,31.27
2019-02-23T18:55:29.992Z,29.23
2019-02-23T18:57:58.640Z,31.17
2019-02-23T19:00:27.514Z,33.40
2019-02-23T19:02:55.926Z,31.70
2019-02-23T19:05:24.647Z,30.00
2019-02-23T19:07:53.488Z,30.73
2019-02-23T19:10:22.309Z,28.67
2019-02-23T19:12:52.426Z,27.67
2019-02-23T19:15:21.524Z,30.33
2019-02-23T19:17:50.036Z,29.13
2019-02-23T19:20:19.133Z,30.40
2019-02-23T19:22:47.924Z,28.73
2019-02-23T19:25:16.680Z,27.77
2019-02-23T19:27:49.380Z,27.17
2019-02-23T19:30:17.935Z,29.23
2019-02-23T19:32:48.672Z,26.67
2019-02-23T19:35:17.235Z,27.80
2019-02-23T19:37:46.007Z,28.97
2019-02-23T19:40:14.919Z,27.63
2019-02-23T19:42:43.923Z,26.27
2019-02-23T19:45:13.193Z,30.70
2019-02-23T19:47:42.000Z,28.47
2019-02-23T19:50:15.393Z,27.37
2019-02-23T19:52:44.340Z,26.00
2019-02-23T19:55:15.332Z,26.30
2019-02-23T19:57:44.378Z,29.80
2019-02-23T20:00:13.405Z,29.80
2019-02-23T20:02:42.343Z,26.60
2019-02-23T20:05:11.293Z,26.23
2019-02-23T20:07:40.013Z,27.80
2019-02-23T20:10:08.761Z,27.43
2019-02-23T20:12:37.448Z,27.93
2019-02-23T20:15:06.392Z,26.67
2019-02-23T20:17:35.289Z,27.23
2019-02-23T20:20:04.372Z,27.97
2019-02-23T20:22:33.037Z,30.70
2019-02-23T20:25:01.812Z,29.83
2019-02-23T20:27:31.003Z,28.57
2019-02-23T20:30:00.100Z,29.60
2019-02-23T20:32:29.196Z,40.13
2019-02-23T20:34:58.816Z,39.43
2019-02-23T20:37:29.717Z,32.80
2019-02-23T20:40:15.105Z,29.07
2019-02-23T20:43:00.464Z,30.00
2019-02-23T20:45:26.351Z,30.63
2019-02-23T20:47:55.828Z,28.23
2019-02-23T20:50:25.003Z,27.23
2019-02-23T20:52:54.481Z,29.03
2019-02-23T20:55:24.014Z,29.53
2019-02-23T20:57:53.386Z,28.27
2019-02-23T21:00:26.765Z,30.33
2019-02-23T21:02:56.612Z,29.77
2019-02-23T21:05:31.836Z,26.23
2019-02-23T21:08:15.964Z,29.80
2019-02-23T21:10:51.853Z,29.47
2019-02-23T21:13:24.416Z,29.53
2019-02-23T21:15:53.790Z,29.73
2019-02-23T21:18:33.220Z,32.30
2019-02-23T21:44:50.371Z,28.87
2019-02-23T21:47:46.256Z,26.90
2019-02-23T21:50:31.360Z,29.07
2019-02-23T21:59:09.569Z,30.67
2019-02-23T22:01:51.036Z,28.57
2019-02-23T22:04:26.433Z,29.63
2019-02-23T22:07:03.420Z,26.93
2019-02-23T22:09:36.701Z,28.50
2019-02-23T22:12:11.717Z,31.23
2019-02-23T22:14:47.717Z,27.67
2019-02-23T22:17:29.746Z,27.97
2019-02-23T22:20:46.918Z,29.47
2019-02-23T22:26:44.592Z,31.97
2019-02-23T22:29:46.347Z,30.17
2019-02-23T22:32:20.497Z,33.03
2019-02-23T22:35:01.244Z,30.23
2019-02-23T22:40:24.331Z,27.73
2019-02-23T22:43:01.849Z,29.20
2019-02-23T22:45:43.481Z,26.67
2019-02-23T22:48:29.194Z,26.60
2019-02-23T22:55:11.980Z,28.77
2019-02-23T22:57:52.276Z,27.40
2019-02-23T23:08:47.449Z,30.47
2019-02-23T23:12:10.527Z,29.47
2019-02-23T23:17:18.918Z,32.70
2019-02-23T23:20:05.166Z,27.80
2019-02-23T23:22:46.962Z,25.33
2019-02-23T23:25:21.228Z,26.60
2019-02-23T23:27:51.558Z,29.60
2019-02-23T23:31:21.073Z,28.70
2019-02-23T23:34:14.719Z,28.07
2019-02-23T23:37:02.707Z,26.47
2019-02-23T23:40:22.370Z,25.63
2019-02-23T23:42:27.310Z,26.83
2019-02-23T23:56:09.248Z,30.40
2019-02-23T23:59:00.942Z,30.47
